Time;durP1;ratioP1;P1;durP2;ratioP2;P2;SDS_P1;SDS_P2;PMS_P1;PMS_P2;Temp;Humidity;BMP_temperature;BMP_pressure;BME280_temperature;BME280_humidity;BME280_pressure;Samples;Min_cycle;Max_cycle;Signal;HPM_P1;HPM_P2
2023/02/04 00:00:36;;;;;;;1.10;0.80;;;;;;;11.81;100.00;97173.47;5055420;28;20078;-55
2023/02/04 00:03:05;;;;;;;1.48;0.90;;;;;;;11.92;100.00;97179.66;5048299;28;20536;-54
2023/02/04 00:05:34;;;;;;;1.80;1.30;;;;;;;11.95;100.00;97177.56;5052872;28;20087;-50
2023/02/04 00:08:02;;;;;;;1.98;1.20;;;;;;;11.74;100.00;97169.69;5045032;28;20088;-52
2023/02/04 00:10:35;;;;;;;1.65;1.20;;;;;;;11.95;100.00;97182.84;5050351;28;20084;-51
2023/02/04 00:13:04;;;;;;;2.13;1.52;;;;;;;11.95;100.00;97179.38;5047716;28;20087;-53
2023/02/04 00:15:32;;;;;;;1.65;1.20;;;;;;;11.97;100.00;97186.19;5051926;28;20563;-54
2023/02/04 00:18:00;;;;;;;2.05;1.25;;;;;;;12.15;100.00;97183.75;5040268;28;21010;-54
2023/02/04 00:20:29;;;;;;;1.95;1.20;;;;;;;11.86;100.00;97186.28;5042981;28;20088;-50
2023/02/04 00:22:58;;;;;;;1.35;1.20;;;;;;;11.98;100.00;97187.88;5052216;28;20087;-53
2023/02/04 00:25:26;;;;;;;2.05;1.30;;;;;;;11.41;100.00;97194.56;5065352;28;20477;-53
2023/02/04 00:27:56;;;;;;;1.80;1.45;;;;;;;11.74;100.00;97187.34;5056133;28;20576;-52
2023/02/04 00:30:24;;;;;;;1.90;1.43;;;;;;;11.79;100.00;97193.91;5047545;28;20489;-56
2023/02/04 00:32:53;;;;;;;4.68;1.40;;;;;;;12.01;100.00;97200.81;5045119;28;20080;-51
2023/02/04 00:35:22;;;;;;;4.90;1.75;;;;;;;12.45;100.00;97201.28;5045004;28;20568;-55
2023/02/04 00:37:51;;;;;;;1.73;1.33;;;;;;;12.42;100.00;97206.88;5044920;28;20084;-55
2023/02/04 00:40:20;;;;;;;2.42;1.75;;;;;;;11.67;100.00;97196.78;5043769;28;20077;-53
2023/02/04 00:42:48;;;;;;;1.40;1.30;;;;;;;11.78;100.00;97194.88;5044849;28;20089;-57
2023/02/04 00:45:18;;;;;;;0.90;0.90;;;;;;;12.16;100.00;97198.63;5047935;28;20084;-55
2023/02/04 00:47:46;;;;;;;1.60;1.50;;;;;;;12.99;100.00;97205.19;5046037;28;20084;-54
2023/02/04 00:50:15;;;;;;;2.22;1.42;;;;;;;13.70;100.00;97210.06;5044569;28;20084;-51
2023/02/04 00:52:44;;;;;;;1.95;1.30;;;;;;;13.42;100.00;97229.53;5044565;28;20092;-48
2023/02/04 00:55:14;;;;;;;1.27;1.17;;;;;;;13.52;100.00;97233.00;5043970;28;20568;-56
2023/02/04 00:57:42;;;;;;;1.95;1.65;;;;;;;12.69;100.00;97226.50;5043478;28;20254;-52
2023/02/04 01:00:12;;;;;;;7.30;2.08;;;;;;;12.59;100.00;97232.66;5046179;28;20568;-54
2023/02/04 01:02:42;;;;;;;4.35;1.98;;;;;;;12.73;100.00;97238.50;5045618;28;20080;-52
2023/02/04 01:05:10;;;;;;;5.80;2.20;;;;;;;12.76;100.00;97244.34;5042642;28;20077;-51
2023/02/04 01:07:39;;;;;;;8.10;1.80;;;;;;;13.23;100.00;97251.59;5045772;28;20513;-53
2023/02/04 01:10:07;;;;;;;5.97;2.17;;;;;;;12.69;100.00;97247.69;5043294;28;20084;-53
2023/02/04 01:12:36;;;;;;;5.47;1.77;;;;;;;13.11;100.00;97253.56;5045097;28;20084;-52
2023/02/04 01:15:05;;;;;;;8.57;1.92;;;;;;;12.93;100.00;97250.75;5046792;28;21697;-52
2023/02/04 01:17:33;;;;;;;11.43;2.35;;;;;;;12.98;100.00;97248.53;5048749;28;20188;-52
2023/02/04 01:20:03;;;;;;;11.65;2.35;;;;;;;13.20;100.00;97250.03;5043530;28;20080;-53
2023/02/04 01:22:31;;;;;;;6.40;1.73;;;;;;;13.31;100.00;97259.66;5043598;28;20085;-51
2023/02/04 01:25:00;;;;;;;4.43;1.80;;;;;;;13.21;100.00;97257.03;5044539;28;20553;-53
2023/02/04 01:27:28;;;;;;;4.13;0.85;;;;;;;13.60;100.00;97249.03;5045049;28;20323;-55
2023/02/04 01:29:57;;;;;;;3.90;2.05;;;;;;;12.97;100.00;97272.50;5045944;28;20079;-55
2023/02/04 01:32:25;;;;;;;5.38;1.60;;;;;;;12.80;100.00;97266.06;5045124;28;20088;-50
2023/02/04 01:34:53;;;;;;;4.80;1.65;;;;;;;13.34;100.00;97261.22;5041771;28;20089;-50
2023/02/04 01:37:25;;;;;;;;;;;;;;;13.20;100.00;97265.94;5043280;28;20083;-48
2023/02/04 01:39:53;;;;;;;6.72;1.60;;;;;;;12.80;100.00;97268.72;5043299;28;19960;-54
2023/02/04 01:42:22;;;;;;;10.85;2.38;;;;;;;13.06;100.00;97269.84;5043536;28;20093;-52
2023/02/04 01:44:51;;;;;;;6.07;1.50;;;;;;;12.72;100.00;97264.13;5044189;28;20079;-51
2023/02/04 01:47:20;;;;;;;7.47;1.77;;;;;;;12.61;100.00;97268.72;5048230;28;20081;-52
2023/02/04 01:49:51;;;;;;;6.25;2.10;;;;;;;11.81;100.00;97265.13;5043501;28;20081;-53
2023/02/04 01:52:20;;;;;;;8.13;1.83;;;;;;;12.02;100.00;97270.38;5042650;28;20084;-54
2023/02/04 01:54:50;;;;;;;12.02;2.80;;;;;;;12.12;100.00;97276.53;5043620;28;20072;-53
2023/02/04 01:57:18;;;;;;;11.52;2.03;;;;;;;12.49;100.00;97283.88;5041868;28;20076;-55
2023/02/04 01:59:47;;;;;;;11.52;1.90;;;;;;;11.97;100.00;97283.16;5042858;28;20072;-54
2023/02/04 02:02:41;;;;;;;7.10;2.88;;;;;;;12.53;100.00;97287.94;5049177;28;20085;-58
2023/02/04 02:05:11;;;;;;;7.32;1.52;;;;;;;12.70;100.00;97294.38;5043092;28;20083;-55
2023/02/04 02:07:39;;;;;;;4.32;1.40;;;;;;;12.29;100.00;97286.47;5045500;28;20092;-53
2023/02/04 02:10:11;;;;;;;4.65;1.75;;;;;;;12.29;100.00;97296.22;5056528;28;20098;-52
2023/02/04 02:12:39;;;;;;;6.70;2.67;;;;;;;12.14;100.00;97302.84;5045190;28;20189;-51
2023/02/04 02:15:09;;;;;;;9.45;3.08;;;;;;;12.13;100.00;97290.59;5044506;28;20460;-53
2023/02/04 02:17:38;;;;;;;7.75;2.38;;;;;;;12.58;100.00;97309.50;5041678;28;20081;-53
2023/02/04 02:20:09;;;;;;;14.80;2.78;;;;;;;12.44;100.00;97305.44;5051238;28;20084;-56
2023/02/04 02:22:38;;;;;;;;;;;;;;;12.07;100.00;97323.69;5051541;28;20084;-52
2023/02/04 02:25:13;;;;;;;7.35;2.05;;;;;;;12.30;100.00;97316.41;5053731;28;20364;-51
2023/02/04 02:27:41;;;;;;;9.38;1.83;;;;;;;11.78;100.00;97320.88;5053309;28;20540;-54
2023/02/04 02:30:11;;;;;;;9.18;2.25;;;;;;;11.71;100.00;97320.56;5045176;28;20084;-51
2023/02/04 02:32:40;;;;;;;5.50;2.10;;;;;;;11.68;100.00;97320.00;5049463;28;20080;-50
2023/02/04 02:35:09;;;;;;;9.27;1.98;;;;;;;11.40;100.00;97324.97;5055865;28;20099;-52
2023/02/04 02:37:37;;;;;;;11.80;2.17;;;;;;;11.38;100.00;97330.34;5055503;28;20092;-55
2023/02/04 02:40:07;;;;;;;7.47;1.50;;;;;;;11.26;100.00;97320.00;5063700;28;20095;-52
2023/02/04 02:42:37;;;;;;;11.82;2.38;;;;;;;11.49;100.00;97332.09;5041721;28;20087;-52
2023/02/04 02:45:20;;;;;;;8.55;1.95;;;;;;;11.58;100.00;97325.22;5047753;28;20068;-50
2023/02/04 02:47:49;;;;;;;12.35;2.40;;;;;;;11.49;100.00;97325.97;5053186;28;20088;-55
2023/02/04 02:50:21;;;;;;;7.25;1.65;;;;;;;11.12;100.00;97344.91;5049816;28;20080;-51
2023/02/04 02:52:49;;;;;;;8.40;2.13;;;;;;;11.38;100.00;97340.09;5051824;28;20104;-48
2023/02/04 02:55:20;;;;;;;7.15;2.25;;;;;;;11.80;100.00;97345.34;5044399;28;20076;-51
2023/02/04 02:57:50;;;;;;;9.57;2.22;;;;;;;10.86;100.00;97342.56;5041907;28;20092;-55
2023/02/04 03:00:21;;;;;;;6.25;2.15;;;;;;;10.63;100.00;97354.13;5045300;28;20076;-50
2023/02/04 03:02:55;;;;;;;6.32;2.42;;;;;;;10.52;100.00;97354.16;5046170;28;20083;-52
2023/02/04 03:05:23;;;;;;;11.63;2.80;;;;;;;10.42;100.00;97359.31;5050601;28;20079;-56
2023/02/04 03:07:52;;;;;;;8.30;2.00;;;;;;;10.21;100.00;97367.09;5049134;28;20091;-52
2023/02/04 03:10:20;;;;;;;6.07;2.00;;;;;;;10.54;100.00;97358.34;5052016;28;20092;-53
2023/02/04 03:12:50;;;;;;;7.05;2.00;;;;;;;10.19;100.00;97363.75;5049739;28;20091;-56
2023/02/04 03:15:19;;;;;;;4.10;1.45;;;;;;;10.33;100.00;97363.53;5044417;28;20040;-55
2023/02/04 03:17:48;;;;;;;6.15;1.30;;;;;;;10.48;100.00;97379.94;5051874;28;20088;-47
2023/02/04 03:20:17;;;;;;;4.85;1.48;;;;;;;10.18;100.00;97378.72;5050969;28;20145;-53
2023/02/04 03:22:45;;;;;;;7.78;2.08;;;;;;;9.80;100.00;97376.41;5049753;28;20107;-55
2023/02/04 03:25:14;;;;;;;7.75;2.00;;;;;;;9.75;100.00;97374.13;5052469;28;20111;-52
2023/02/04 03:27:42;;;;;;;9.88;2.55;;;;;;;9.88;100.00;97375.84;5048815;28;20080;-51
2023/02/04 03:30:12;;;;;;;8.27;1.73;;;;;;;9.93;100.00;97371.03;5044953;28;20084;-50
2023/02/04 03:32:41;;;;;;;4.45;1.35;;;;;;;10.02;100.00;97395.84;5042598;28;20084;-55
2023/02/04 03:35:09;;;;;;;6.40;1.77;;;;;;;10.30;100.00;97379.59;5043877;28;20095;-54
2023/02/04 03:37:38;;;;;;;3.97;1.50;;;;;;;10.60;100.00;97400.09;5045119;28;20079;-58
2023/02/04 03:40:07;;;;;;;9.88;1.95;;;;;;;10.16;100.00;97400.91;5045466;28;20077;-53
2023/02/04 03:42:35;;;;;;;7.72;1.55;;;;;;;10.17;100.00;97402.56;5045352;28;20480;-54
2023/02/04 03:45:04;;;;;;;3.00;1.23;;;;;;;10.62;100.00;97407.84;5045422;28;20091;-54
2023/02/04 03:47:34;;;;;;;3.95;1.10;;;;;;;10.21;100.00;97417.19;5048298;28;20085;-54
2023/02/04 03:50:02;;;;;;;5.50;1.33;;;;;;;10.32;100.00;97426.91;5045867;28;20611;-54
2023/02/04 03:52:31;;;;;;;5.53;1.33;;;;;;;10.50;100.00;97419.41;5048787;28;20506;-54
2023/02/04 03:54:59;;;;;;;4.50;1.20;;;;;;;10.33;100.00;97432.09;5043173;28;20089;-54
2023/02/04 03:57:27;;;;;;;3.10;1.40;;;;;;;10.92;100.00;97421.25;5051364;28;20087;-51
2023/02/04 03:59:56;;;;;;;3.20;1.33;;;;;;;10.48;100.00;97437.97;5048518;28;20080;-57
2023/02/04 04:02:24;;;;;;;7.45;1.80;;;;;;;10.84;100.00;97428.94;5046589;28;20080;-51
2023/02/04 04:04:54;;;;;;;7.22;1.35;;;;;;;11.05;100.00;97434.31;5044803;28;20554;-55
2023/02/04 04:07:22;;;;;;;10.20;1.83;;;;;;;10.85;100.00;97449.09;5044937;28;20081;-53
2023/02/04 04:09:50;;;;;;;5.43;1.48;;;;;;;10.69;100.00;97453.91;5042946;28;20495;-56
2023/02/04 04:12:19;;;;;;;10.32;1.40;;;;;;;10.62;100.00;97448.25;5044127;28;20088;-53
2023/02/04 04:14:47;;;;;;;6.35;2.05;;;;;;;10.36;100.00;97458.22;5047227;28;20518;-55
2023/02/04 04:17:16;;;;;;;5.38;1.45;;;;;;;10.22;100.00;97461.88;5045288;28;20478;-58
2023/02/04 04:19:44;;;;;;;8.40;2.00;;;;;;;10.92;100.00;97441.53;5049419;28;20085;-58
2023/02/04 04:22:14;;;;;;;5.85;1.73;;;;;;;10.86;100.00;97442.00;5052473;28;20096;-54
2023/02/04 04:24:42;;;;;;;8.47;1.80;;;;;;;11.12;100.00;97439.94;5053996;28;20085;-59
2023/02/04 04:27:11;;;;;;;7.07;1.83;;;;;;;11.32;100.00;97433.88;5046499;28;20078;-58
2023/02/04 04:29:39;;;;;;;7.97;1.88;;;;;;;11.28;100.00;97445.63;5050667;28;20076;-58
2023/02/04 04:32:08;;;;;;;10.00;1.77;;;;;;;11.38;100.00;97451.84;5052900;28;20045;-56
2023/02/04 04:34:37;;;;;;;12.63;1.98;;;;;;;11.28;100.00;97444.78;5049067;28;20127;-59
2023/02/04 04:37:05;;;;;;;4.55;1.40;;;;;;;11.30;100.00;97448.16;5047584;28;20474;-57
2023/02/04 04:39:35;;;;;;;3.60;1.30;;;;;;;11.78;100.00;97448.56;5045288;28;20084;-57
2023/02/04 04:42:03;;;;;;;10.07;2.73;;;;;;;11.32;100.00;97462.94;5044052;28;20087;-56
2023/02/04 04:44:32;;;;;;;14.48;2.13;;;;;;;11.79;100.00;97466.09;5046800;28;20089;-60
2023/02/04 04:47:00;;;;;;;7.45;2.08;;;;;;;11.93;100.00;97469.41;5045191;28;20072;-58
2023/02/04 04:49:29;;;;;;;7.00;1.20;;;;;;;12.18;100.00;97484.06;5046314;28;20092;-59
2023/02/04 04:51:57;;;;;;;6.28;1.42;;;;;;;11.99;100.00;97488.25;5047283;28;20706;-56
2023/02/04 04:54:26;;;;;;;7.13;1.95;;;;;;;10.67;100.00;97484.84;5046484;28;20087;-58
2023/02/04 04:56:55;;;;;;;8.20;2.10;;;;;;;10.89;100.00;97482.19;5046656;28;20095;-53
2023/02/04 04:59:24;;;;;;;9.82;3.47;;;;;;;11.08;100.00;97484.22;5047497;28;20076;-57
2023/02/04 05:01:52;;;;;;;5.47;1.40;;;;;;;10.30;100.00;97487.69;5047905;28;20080;-54
2023/02/04 05:04:21;;;;;;;10.63;1.90;;;;;;;10.54;100.00;97498.16;5049205;28;20465;-55
2023/02/04 05:06:49;;;;;;;9.60;2.25;;;;;;;10.28;100.00;97494.88;5060036;28;20080;-52
2023/02/04 05:09:17;;;;;;;5.10;1.60;;;;;;;10.47;100.00;97496.09;5050985;28;20088;-55
2023/02/04 05:11:46;;;;;;;11.18;2.17;;;;;;;10.50;100.00;97506.44;5049581;28;20111;-55
2023/02/04 05:14:16;;;;;;;7.25;1.60;;;;;;;10.23;100.00;97508.38;5054252;28;20126;-59
2023/02/04 05:16:44;;;;;;;10.45;1.63;;;;;;;10.19;100.00;97506.09;5057735;28;20077;-60
2023/02/04 05:19:13;;;;;;;7.63;1.40;;;;;;;10.55;100.00;97504.25;5049768;28;20846;-57
2023/02/04 05:21:41;;;;;;;7.05;1.75;;;;;;;10.67;100.00;97525.25;5050591;28;20083;-57
2023/02/04 05:24:09;;;;;;;7.25;1.40;;;;;;;10.38;100.00;97531.91;5049101;28;20536;-57
2023/02/04 05:26:38;;;;;;;8.77;1.30;;;;;;;11.05;100.00;97526.69;5046525;28;20096;-53
2023/02/04 05:29:06;;;;;;;13.68;1.90;;;;;;;11.02;100.00;97531.38;5056754;28;20114;-56
2023/02/04 05:31:39;;;;;;;9.38;1.58;;;;;;;10.82;100.00;97544.31;5055852;28;20506;-59
2023/02/04 05:34:07;;;;;;;3.15;1.45;;;;;;;10.95;100.00;97544.22;5052232;28;20087;-58
2023/02/04 05:36:35;;;;;;;8.68;2.25;;;;;;;10.92;100.00;97545.28;5052194;28;20080;-54
2023/02/04 05:39:04;;;;;;;4.72;1.42;;;;;;;11.10;100.00;97537.72;5048511;28;20088;-58
2023/02/04 05:41:32;;;;;;;12.43;1.70;;;;;;;10.90;100.00;97555.13;5055068;28;20088;-56
2023/02/04 05:44:01;;;;;;;5.00;1.42;;;;;;;10.67;100.00;97558.72;5047816;28;20068;-56
2023/02/04 05:46:29;;;;;;;10.55;2.13;;;;;;;10.85;100.00;97556.44;5055781;28;20075;-55
2023/02/04 05:48:59;;;;;;;8.00;1.23;;;;;;;10.97;100.00;97559.91;5050923;28;20084;-54
2023/02/04 05:51:27;;;;;;;6.97;2.10;;;;;;;10.81;100.00;97566.41;5053309;28;20084;-54
2023/02/04 05:53:56;;;;;;;8.10;2.08;;;;;;;11.08;100.00;97575.75;5051050;28;20079;-59
2023/02/04 05:56:25;;;;;;;7.93;1.40;;;;;;;11.27;100.00;97577.78;5046253;28;20072;-58
2023/02/04 05:58:53;;;;;;;5.20;1.73;;;;;;;11.13;100.00;97579.72;5054075;28;20087;-57
2023/02/04 06:01:22;;;;;;;5.07;1.40;;;;;;;10.79;100.00;97588.59;5053181;28;20079;-53
2023/02/04 06:03:50;;;;;;;8.63;2.03;;;;;;;11.04;100.00;97593.63;5053340;28;20103;-50
2023/02/04 06:06:20;;;;;;;5.82;1.88;;;;;;;11.00;100.00;97596.63;5048519;28;20076;-59
2023/02/04 06:08:48;;;;;;;6.57;1.73;;;;;;;11.00;100.00;97594.00;5049910;28;20704;-57
2023/02/04 06:11:17;;;;;;;4.68;1.45;;;;;;;11.02;100.00;97602.66;5049277;28;20492;-58
2023/02/04 06:13:45;;;;;;;13.32;2.30;;;;;;;10.32;100.00;97601.78;5052095;28;20104;-58
2023/02/04 06:16:13;;;;;;;7.32;1.80;;;;;;;10.75;100.00;97603.81;5047224;28;20087;-58
2023/02/04 06:18:42;;;;;;;4.07;1.42;;;;;;;10.50;100.00;97607.47;5052419;28;20476;-57
2023/02/04 06:21:10;;;;;;;11.45;2.10;;;;;;;10.22;100.00;97598.13;5048762;28;20516;-58
2023/02/04 06:23:40;;;;;;;8.75;1.98;;;;;;;10.51;100.00;97618.88;5054233;28;20072;-56
2023/02/04 06:26:08;;;;;;;7.23;2.07;;;;;;;10.56;100.00;97628.09;5053987;28;20091;-56
2023/02/04 06:28:37;;;;;;;4.78;1.58;;;;;;;10.87;100.00;97636.31;5053088;28;20076;-55
2023/02/04 06:31:07;;;;;;;10.45;2.03;;;;;;;10.58;100.00;97636.75;5050964;28;20534;-54
2023/02/04 06:33:36;;;;;;;3.45;1.48;;;;;;;11.07;100.00;97627.72;5048872;28;20529;-58
2023/02/04 06:36:05;;;;;;;8.25;1.55;;;;;;;10.95;100.00;97633.13;5052458;28;20076;-52
2023/02/04 06:38:33;;;;;;;6.20;1.80;;;;;;;10.54;100.00;97629.19;5049239;28;20084;-52
2023/02/04 06:41:03;;;;;;;1.83;1.05;;;;;;;10.98;100.00;97632.84;5053821;28;20088;-51
2023/02/04 06:43:31;;;;;;;7.77;1.87;;;;;;;10.78;100.00;97631.78;5044878;28;20079;-57
2023/02/04 06:46:00;;;;;;;5.97;1.60;;;;;;;10.72;100.00;97635.69;5051711;28;20095;-58
2023/02/04 06:48:28;;;;;;;9.55;1.85;;;;;;;10.77;100.00;97633.56;5054358;28;20461;-59
2023/02/04 06:50:58;;;;;;;8.75;1.67;;;;;;;11.10;100.00;97631.91;5047174;28;20115;-53
2023/02/04 06:53:26;;;;;;;5.32;1.48;;;;;;;10.86;100.00;97632.84;5049394;28;20072;-59
2023/02/04 06:55:55;;;;;;;15.38;1.60;;;;;;;10.84;100.00;97636.56;5055010;28;20084;-56
2023/02/04 06:58:25;;;;;;;4.93;1.60;;;;;;;10.87;100.00;97641.59;5050196;28;20592;-57
2023/02/04 07:00:53;;;;;;;5.72;1.55;;;;;;;10.71;100.00;97649.03;5044202;28;20076;-59
2023/02/04 07:03:21;;;;;;;8.82;1.77;;;;;;;10.83;100.00;97638.34;5053893;28;20084;-55
2023/02/04 07:05:51;;;;;;;7.22;1.88;;;;;;;10.91;100.00;97648.34;5057033;28;20085;-53
2023/02/04 07:08:20;;;;;;;10.80;2.28;;;;;;;10.64;100.00;97653.91;5055214;28;20088;-60
2023/02/04 07:10:49;;;;;;;5.25;2.15;;;;;;;10.84;100.00;97660.31;5060142;28;20080;-58
2023/02/04 07:13:17;;;;;;;5.75;1.98;;;;;;;10.88;100.00;97669.69;5047157;28;20088;-58
2023/02/04 07:15:47;;;;;;;4.90;1.77;;;;;;;11.01;100.00;97666.94;5050540;28;20627;-58
2023/02/04 07:18:15;;;;;;;12.32;3.00;;;;;;;10.76;100.00;97670.59;5048826;28;20450;-58
2023/02/04 07:20:44;;;;;;;8.65;1.77;;;;;;;11.23;100.00;97669.63;5054228;28;20108;-60
2023/02/04 07:23:12;;;;;;;7.40;2.10;;;;;;;11.05;100.00;97674.53;5049577;28;20091;-58
2023/02/04 07:25:40;;;;;;;9.60;1.05;;;;;;;11.28;100.00;97687.72;5050935;28;20471;-58
2023/02/04 07:28:09;;;;;;;8.00;1.70;;;;;;;11.32;100.00;97686.53;5058673;28;20097;-59
2023/02/04 07:30:37;;;;;;;4.07;1.40;;;;;;;11.03;100.00;97696.72;5050884;28;20088;-58
2023/02/04 07:33:07;;;;;;;7.70;1.40;;;;;;;11.15;100.00;97698.44;5044695;28;20080;-58
2023/02/04 07:35:36;;;;;;;11.03;1.60;;;;;;;11.14;100.00;97702.00;5049086;28;20076;-55
2023/02/04 07:38:05;;;;;;;9.93;1.50;;;;;;;11.11;100.00;97710.16;5055004;28;20104;-56
2023/02/04 07:40:33;;;;;;;4.43;1.00;;;;;;;11.13;100.00;97724.09;5045688;28;20085;-59
2023/02/04 07:43:02;;;;;;;10.63;1.77;;;;;;;11.43;100.00;97728.00;5049140;28;20091;-55
2023/02/04 07:45:30;;;;;;;5.15;1.67;;;;;;;11.01;100.00;97732.91;5047500;28;20076;-57
2023/02/04 07:47:59;;;;;;;5.78;2.28;;;;;;;11.33;100.00;97727.84;5052039;28;20083;-54
2023/02/04 07:50:29;;;;;;;7.30;1.80;;;;;;;11.37;100.00;97726.66;5053281;28;20095;-56
2023/02/04 07:52:58;;;;;;;7.97;1.52;;;;;;;11.32;100.00;97729.66;5050632;28;20092;-56
2023/02/04 07:55:26;;;;;;;3.67;1.30;;;;;;;11.08;100.00;97734.13;5040793;28;20073;-55
2023/02/04 07:57:55;;;;;;;3.70;1.40;;;;;;;11.07;100.00;97741.22;5057627;28;20079;-53
2023/02/04 08:00:23;;;;;;;3.55;1.45;;;;;;;10.68;100.00;97743.25;5047660;28;20480;-57
2023/02/04 08:02:52;;;;;;;4.63;1.77;;;;;;;10.88;100.00;97743.59;5050320;28;20080;-53
2023/02/04 08:05:20;;;;;;;4.72;1.15;;;;;;;10.95;100.00;97747.44;5050957;28;20341;-54
2023/02/04 08:07:50;;;;;;;5.80;1.80;;;;;;;11.13;100.00;97743.41;5056716;28;20087;-55
2023/02/04 08:10:20;;;;;;;6.43;1.70;;;;;;;11.26;100.00;97755.69;5050383;28;20084;-56
2023/02/04 08:12:48;;;;;;;7.65;1.33;;;;;;;10.87;100.00;97755.94;5055015;28;20521;-56
2023/02/04 08:15:17;;;;;;;7.70;1.55;;;;;;;10.80;100.00;97759.97;5053873;28;20080;-55
2023/02/04 08:17:45;;;;;;;5.70;1.60;;;;;;;10.58;100.00;97773.06;5056869;28;20543;-57
2023/02/04 08:20:13;;;;;;;4.75;1.05;;;;;;;10.47;100.00;97781.78;5053086;28;20473;-58
2023/02/04 08:22:42;;;;;;;4.93;1.33;;;;;;;11.50;96.16;97776.75;5047467;28;20532;-57
2023/02/04 08:25:12;;;;;;;4.53;1.00;;;;;;;10.81;100.00;97769.59;5050293;28;20099;-56
2023/02/04 08:27:41;;;;;;;4.18;0.82;;;;;;;11.94;100.00;97769.81;5055698;28;20073;-52
2023/02/04 08:30:11;;;;;;;4.20;0.95;;;;;;;12.00;92.17;97777.25;5049485;28;20092;-57
2023/02/04 08:32:39;;;;;;;4.68;1.17;;;;;;;12.13;89.98;97774.50;5055645;28;20119;-53
2023/02/04 08:35:08;;;;;;;5.35;1.35;;;;;;;11.54;100.00;97788.75;5052631;28;20084;-54
2023/02/04 08:37:36;;;;;;;1.60;0.88;;;;;;;12.00;96.33;97788.69;5057668;28;20090;-58
2023/02/04 08:40:06;;;;;;;3.45;0.98;;;;;;;12.18;91.52;97785.53;5050043;28;20505;-52
2023/02/04 08:42:35;;;;;;;3.50;1.27;;;;;;;12.32;88.81;97796.72;5053959;28;20080;-54
2023/02/04 08:45:04;;;;;;;6.63;1.30;;;;;;;12.17;91.22;97799.72;5054637;28;20083;-56
2023/02/04 08:47:32;;;;;;;4.55;1.23;;;;;;;12.53;94.65;97803.91;5052963;28;20506;-59
2023/02/04 08:50:01;;;;;;;11.75;1.92;;;;;;;12.53;96.13;97803.91;5063235;28;20076;-56
2023/02/04 08:52:29;;;;;;;8.00;1.80;;;;;;;12.39;97.15;97806.78;5051310;28;20089;-58
2023/02/04 08:54:57;;;;;;;5.97;1.00;;;;;;;12.49;98.90;97798.00;5056986;28;20462;-55
2023/02/04 08:57:26;;;;;;;4.85;1.85;;;;;;;12.06;100.00;97796.13;5055459;28;20084;-56
2023/02/04 08:59:55;;;;;;;9.13;1.90;;;;;;;12.20;100.00;97800.31;5058947;28;20188;-59
2023/02/04 09:02:24;;;;;;;6.73;1.80;;;;;;;13.01;91.17;97798.22;5060941;28;20091;-58
2023/02/04 09:04:52;;;;;;;5.22;1.48;;;;;;;12.01;97.56;97814.19;5058006;28;20079;-57
2023/02/04 09:07:21;;;;;;;6.35;1.48;;;;;;;11.61;100.00;97819.03;5054269;28;20080;-59
2023/02/04 09:09:49;;;;;;;5.03;1.05;;;;;;;11.97;100.00;97822.44;5049563;28;20084;-55
2023/02/04 09:12:17;;;;;;;10.15;1.60;;;;;;;12.06;100.00;97827.03;5055997;28;21761;-58
2023/02/04 09:14:46;;;;;;;9.57;2.22;;;;;;;11.93;100.00;97832.41;5053763;28;20084;-52
2023/02/04 09:17:16;;;;;;;32.03;2.33;;;;;;;12.18;100.00;97843.72;5056827;28;20102;-56
2023/02/04 09:19:44;;;;;;;3.20;0.87;;;;;;;12.12;98.23;97855.63;5057259;28;20081;-57
2023/02/04 09:22:12;;;;;;;1.00;0.60;;;;;;;11.89;91.30;97870.63;5054173;28;20556;-55
2023/02/04 09:24:41;;;;;;;0.38;0.32;;;;;;;10.33;100.00;97890.03;5054608;28;20077;-56
2023/02/04 09:27:09;;;;;;;0.60;0.60;;;;;;;9.97;100.00;97884.53;5064201;28;20071;-58
2023/02/04 09:29:38;;;;;;;0.95;0.68;;;;;;;9.68;100.00;97886.53;5057622;28;20083;-60
2023/02/04 09:32:06;;;;;;;1.35;0.90;;;;;;;9.85;100.00;97887.19;5059612;28;20084;-59
2023/02/04 09:34:36;;;;;;;0.50;0.50;;;;;;;9.51;100.00;97897.38;5060850;28;20088;-54
2023/02/04 09:37:04;;;;;;;0.83;0.80;;;;;;;9.71;100.00;97896.03;5057117;28;21064;-57
2023/02/04 09:39:32;;;;;;;3.40;0.90;;;;;;;9.99;100.00;97901.09;5056723;28;20919;-59
2023/02/04 09:42:01;;;;;;;2.47;1.73;;;;;;;9.94;100.00;97905.84;5062004;28;20083;-60
2023/02/04 09:44:29;;;;;;;3.83;1.10;;;;;;;10.41;100.00;97903.53;5059575;28;20115;-60
2023/02/04 09:47:00;;;;;;;2.88;1.35;;;;;;;10.68;100.00;97901.56;5060098;28;20080;-59
2023/02/04 09:49:28;;;;;;;2.28;1.20;;;;;;;10.74;100.00;97905.56;5057155;28;20496;-57
2023/02/04 09:51:58;;;;;;;3.10;1.20;;;;;;;10.57;100.00;97909.41;5059815;28;20081;-60
2023/02/04 09:54:26;;;;;;;1.65;0.93;;;;;;;11.70;95.78;97894.09;5055671;28;20541;-61
2023/02/04 09:56:56;;;;;;;2.13;1.00;;;;;;;11.55;94.64;97910.16;5051137;28;20076;-61
2023/02/04 09:59:27;;;;;;;0.80;0.70;;;;;;;11.80;93.79;97905.66;5053828;28;20650;-61
2023/02/04 10:01:58;;;;;;;1.88;1.35;;;;;;;11.32;99.16;97916.31;5059945;28;20091;-56
2023/02/04 10:04:26;;;;;;;3.33;1.70;;;;;;;10.95;100.00;97912.91;5058098;28;20086;-58
2023/02/04 10:06:57;;;;;;;1.42;0.82;;;;;;;12.20;87.09;97913.22;5053897;28;20090;-61
2023/02/04 10:09:27;;;;;;;;;;;;;;;11.50;90.79;97916.75;5061087;28;20083;-60
2023/02/04 10:11:55;;;;;;;2.47;1.45;;;;;;;11.58;98.86;97917.00;5057218;28;19955;-60
2023/02/04 10:14:23;;;;;;;1.30;1.00;;;;;;;12.72;83.98;97917.06;5051771;28;20095;-60
2023/02/04 10:16:54;;;;;;;3.08;1.10;;;;;;;12.64;83.91;97920.31;5060035;28;20084;-60
2023/02/04 10:19:27;;;;;;;1.65;1.15;;;;;;;13.18;77.28;97919.50;5055393;28;20088;-61
2023/02/04 10:21:55;;;;;;;2.30;1.40;;;;;;;12.68;83.24;97932.34;5054621;28;20068;-56
2023/02/04 10:24:27;;;;;;;2.13;1.20;;;;;;;13.06;77.61;97926.63;5052620;28;20095;-61
2023/02/04 10:27:06;;;;;;;3.97;1.73;;;;;;;13.52;77.65;97908.78;5050157;28;20076;-60
2023/02/04 10:29:35;;;;;;;0.77;0.70;;;;;;;13.20;72.39;97920.19;5063784;28;20084;-60
2023/02/04 10:32:03;;;;;;;2.45;0.65;;;;;;;13.17;77.86;97927.56;5061166;28;20509;-60
2023/02/04 10:34:36;;;;;;;1.48;0.77;;;;;;;12.65;78.46;97932.59;5051003;28;20080;-58
2023/02/04 10:37:14;;;;;;;4.72;0.80;;;;;;;13.32;80.18;97934.31;5051792;28;20454;-61
2023/02/04 10:39:44;;;;;;;1.52;0.77;;;;;;;13.15;79.48;97930.34;5052958;28;20080;-61
2023/02/04 10:42:20;;;;;;;1.65;0.98;;;;;;;12.54;77.70;97933.44;5055064;28;20084;-59
2023/02/04 10:44:49;;;;;;;1.35;0.82;;;;;;;12.56;83.56;97936.81;5056124;28;20087;-61
2023/02/04 10:47:19;;;;;;;3.22;1.10;;;;;;;12.34;91.83;97934.97;5053073;28;20083;-60
2023/02/04 10:49:55;;;;;;;1.00;0.90;;;;;;;12.82;88.74;97928.59;5058146;28;20092;-62
2023/02/04 10:52:26;;;;;;;3.15;0.90;;;;;;;12.54;90.64;97925.50;5052649;28;20816;-62
2023/02/04 10:54:57;;;;;;;2.00;1.00;;;;;;;12.96;83.21;97928.31;5054133;28;20114;-60
2023/02/04 10:57:27;;;;;;;2.65;1.50;;;;;;;13.67;80.61;97917.28;5057572;28;20074;-61
2023/02/04 10:59:58;;;;;;;3.17;1.10;;;;;;;12.59;89.44;97925.13;5052948;28;20073;-61
2023/02/04 11:02:42;;;;;;;1.58;1.00;;;;;;;13.20;90.72;97924.66;5059001;28;20550;-60
2023/02/04 11:05:14;;;;;;;2.10;1.17;;;;;;;12.40;95.89;97925.72;5052550;28;20084;-61
2023/02/04 11:07:43;;;;;;;1.17;0.65;;;;;;;12.13;99.14;97923.44;5057353;28;20072;-58
2023/02/04 11:10:15;;;;;;;1.10;0.73;;;;;;;11.98;99.02;97920.16;5055200;28;20080;-60
2023/02/04 11:12:46;;;;;;;3.42;1.10;;;;;;;12.58;93.08;97926.09;5053670;28;20485;-58
2023/02/04 11:15:37;;;;;;;3.88;1.48;;;;;;;12.45;98.06;97930.66;5053303;28;20627;-58
2023/02/04 11:18:07;;;;;;;2.05;1.23;;;;;;;12.73;94.64;97932.84;5056370;28;20080;-60
2023/02/04 11:20:38;;;;;;;3.38;1.20;;;;;;;13.00;89.55;97927.09;5056378;28;20083;-59
2023/02/04 11:23:28;;;;;;;3.75;1.20;;;;;;;13.10;85.01;97924.56;5053310;28;20083;-60
2023/02/04 11:26:06;;;;;;;5.22;1.40;;;;;;;12.85;85.96;97931.00;5051203;28;20084;-60
2023/02/04 11:28:56;;;;;;;5.03;1.05;;;;;;;12.82;82.64;97925.94;5055842;28;20471;-56
2023/02/04 11:31:42;;;;;;;2.15;0.93;;;;;;;13.24;80.89;97911.06;5050609;28;20075;-60
2023/02/04 11:34:25;;;;;;;2.15;1.20;;;;;;;13.82;71.73;97900.09;5060260;28;20644;-59
2023/02/04 11:37:11;;;;;;;4.43;1.30;;;;;;;13.94;67.97;97911.50;5049384;28;20080;-58